Colonia Juan Carrasco Ma, Mexico

7:57 PM MST on February 24, 2017 (GMT -0700)
Playa Sur | | Change Station

Elev 23 ft 23.19 °N, 106.42 °W | Updated 10 seconds ago

Clear
Clear
71.6 °F
Feels Like 70 °F
N
7.4
Wind Variable Wind from NNW
Gusts 9.8 mph

Today
High -- | Low -- °F
--% Chance of Precip.
Yesterday
High -- | Low -- °F
Precip. -- in
Pressure 29.86 in
Visibility 10.0 miles
Clouds Clear
Heat Index 70 °F
Dew Point 67 °F
Humidity 86%
Rainfall 0.00 in
Snow Depth Not available.
6:31 AM 6:06 PM
Waning Crescent, 3% visible
METAR MMMZ 250143Z 32004KT 10SM SKC 21/16 A2986 RMK HZY FULYR 3QUAD
Pressure 29.86 in
Visibility 10.0 miles
Clouds Clear
Heat Index 70 °F
Dew Point 67 °F
Humidity 86%
Rainfall 0.00 in
Snow Depth Not available.
6:31 AM 6:06 PM
Waning Crescent, 3% visible
METAR MMMZ 250143Z 32004KT 10SM SKC 21/16 A2986 RMK HZY FULYR 3QUAD

Get Your Daily Forecast Email!

Thanks for signing up!

Be on the lookout for a verification email in your inbox.

You'll start receiving the daily forecast at 8 AM.

×

10-Day Weather Forecast

No radar image for this location.
×

Almanac

Astronomy

Feb. 24, 2017 Rise Set
Actual Time
Civil Twilight
Nautical Twilight
Astronomical Twilight
Moon
Length of Visible Light
Length of Day
Tomorrow will be .
, % of the Moon is Illuminated

Today's Extremes

Country Highs Country Lows

Community

WunderPhotos

Upload Photos

1,962,540 photos uploaded!

WunderBlog® & News

Nearby

Air Quality

  Air Quality AQ Index Pollutant
Not available.

Snow Depth

Station Depth Elevation

Earthquake Activity

City Distance Mag. Time & Date
Minimum magnitude displayed is 2.5.

Coastal Water Temperatures

Place Temperature

Stations

Nearby Weather Stations

Station Location Temp. Windchill Dew Point Humidity Wind Precip. Elev Updated Type